Selawik, AK

11:42 AM AKST on January 19, 2018 (GMT -0900)
Selawik

Weather History for PASK - January, 2013

Change the Weather History Date:

Sunday, January 20, 2013

  Actual Average Record
Temperature  
Mean Temperature 10 °F -  
Max Temperature 14 °F 1 °F 37 °F (2008)
Min Temperature 6 °F -8 °F -45 °F (1999)
Degree Days  
Heating Degree Days 55    
Moisture  
Dew Point 6 °F    
Average Humidity 80    
Maximum Humidity 93    
Minimum Humidity 67    
Precipitation  
Precipitation 0.00 in - - ()
Sea Level Pressure  
Sea Level Pressure 30.07 in    
Wind  
Wind Speed 25 mph (ENE)    
Max Wind Speed 32 mph    
Max Gust Speed 39 mph    
Visibility 6 miles    
Events      
Averages and records for this station are not official NWS values.
T = Trace of Precipitation, MM = Missing Value Source: NWS Daily Summary

Daily Weather History Graph

Daily Weather History Graph

Search for Another Location

Airport or City:

Trip Planner

Search our weather history database for the weather conditions in past years. The results will help you decide how hot, cold, wet, or windy it might be!

Date:

Astronomy

Jan. 20, 2013 Rise Set
Actual Time 11:23 AM AKST 4:19 PM AKST
Civil Twilight 10:07 AM AKST 5:36 PM AKST
Nautical Twilight 8:56 AM AKST 6:46 PM AKST
Astronomical Twilight 7:53 AM AKST 7:49 PM AKST
Moon 11:35 AM AKST (1/20) 5:54 AM AKST (1/20)
Length of Visible Light 7h 29m
Length of Day
4h 56m
Waxing Gibbous, 67% of the Moon is Illuminated
Jan 20
Waxing Gibbous
Jan 26
Full
Feb 3
Last Quarter
Feb 9
New
Feb 17
First Quarter

Hourly Weather History & Observations

Time (AKST) Temp. Windchill Dew Point Humidity Pressure Visibility Wind Dir Wind Speed Gust Speed Precip Events Conditions
12:16 AM 6.8 °F -15.5 °F 1.4 °F 79% 30.14 in 5.0 mi ENE 26.5 mph - N/A   Partly Cloudy
12:36 AM 8.6 °F -13.1 °F 1.4 °F 73% 30.14 in 5.0 mi ENE 26.5 mph 34.5 mph N/A   Partly Cloudy
12:56 AM 8.6 °F -13.1 °F 1.4 °F 73% 30.13 in 5.0 mi ENE 26.5 mph 34.5 mph N/A   Clear
1:16 AM 8.6 °F -13.1 °F 1.4 °F 73% 30.13 in 7.0 mi ENE 26.5 mph 32.2 mph N/A   Clear
1:36 AM 8.6 °F -12.7 °F 1.4 °F 73% 30.13 in 8.0 mi ENE 25.3 mph - N/A   Partly Cloudy
1:56 AM 8.6 °F -13.4 °F 1.4 °F 73% 30.12 in 9.0 mi ENE 27.6 mph - N/A   Mostly Cloudy
2:16 AM 8.6 °F -13.4 °F 1.4 °F 73% 30.11 in 5.0 mi ENE 27.6 mph 32.2 mph N/A   Overcast
2:36 AM 8.6 °F -12.7 °F 1.4 °F 73% 30.11 in 5.0 mi ENE 25.3 mph 32.2 mph N/A   Overcast
3:16 AM 10.4 °F -11.4 °F 1.4 °F 67% 30.10 in 9.0 mi ENE 28.8 mph 33.4 mph N/A   Mostly Cloudy
3:36 AM 10.4 °F -11.0 °F 1.4 °F 67% 30.09 in 7.0 mi ENE 27.6 mph 33.4 mph N/A   Mostly Cloudy
3:56 AM 10.4 °F -10.7 °F 1.4 °F 67% 30.08 in 6.0 mi ENE 26.5 mph 33.4 mph N/A   Overcast
4:16 AM 10.4 °F -10.7 °F 1.4 °F 67% 30.08 in 7.0 mi ENE 26.5 mph 31.1 mph N/A   Mostly Cloudy
4:36 AM 10.4 °F -10.3 °F 1.4 °F 67% 30.08 in 8.0 mi ENE 25.3 mph - N/A   Scattered Clouds
4:56 AM 10.4 °F -10.3 °F 1.4 °F 67% 30.07 in 6.0 mi ENE 25.3 mph 33.4 mph N/A   Overcast
5:16 AM 10.4 °F -10.7 °F 1.4 °F 67% 30.06 in 7.0 mi ENE 26.5 mph - N/A   Overcast
5:36 AM 10.4 °F -10.7 °F 1.4 °F 67% 30.06 in 5.0 mi ENE 26.5 mph 33.4 mph N/A   Overcast
5:56 AM 10.4 °F -10.7 °F 1.4 °F 67% 30.06 in 7.0 mi ENE 26.5 mph - N/A   Overcast
6:16 AM 10.4 °F -11.7 °F 3.2 °F 73% 30.05 in 2.5 mi ENE 29.9 mph 34.5 mph N/A   Overcast
6:36 AM 10.4 °F -10.7 °F 3.2 °F 73% 30.04 in 2.0 mi ENE 26.5 mph 32.2 mph N/A   Overcast
6:56 AM 10.4 °F -10.7 °F 3.2 °F 73% 30.03 in 2.5 mi ENE 26.5 mph 31.1 mph N/A   Overcast
7:16 AM 10.4 °F -10.7 °F 3.2 °F 73% 30.04 in 3.0 mi ENE 26.5 mph 32.2 mph N/A   Overcast
7:36 AM 10.4 °F -11.0 °F 3.2 °F 73% 30.04 in 7.0 mi ENE 27.6 mph 33.4 mph N/A   Overcast
7:56 AM 10.4 °F -12.0 °F 3.2 °F 73% 30.03 in 1.5 mi ENE 31.1 mph 34.5 mph N/A   Overcast
8:16 AM 10.4 °F -10.7 °F 5.0 °F 79% 30.03 in 1.8 mi ENE 26.5 mph 32.2 mph N/A   Overcast
8:36 AM 10.4 °F -10.7 °F 5.0 °F 79% 30.03 in 1.8 mi ENE 26.5 mph - N/A   Overcast
8:56 AM 10.4 °F -10.7 °F 6.8 °F 85% 30.03 in 1.5 mi ENE 26.5 mph 29.9 mph N/A   Overcast
9:16 AM 10.4 °F -11.0 °F 6.8 °F 85% 30.02 in 1.0 mi ENE 27.6 mph 32.2 mph N/A   Overcast
9:36 AM 10.4 °F -9.9 °F 8.6 °F 92% 30.03 in 0.5 mi East 24.2 mph - N/A   Overcast
9:56 AM 12.2 °F -8.2 °F 8.6 °F 85% 30.03 in 0.5 mi East 26.5 mph 31.1 mph N/A   Overcast
10:16 AM 12.2 °F -8.9 °F 10.4 °F 92% 30.03 in 0.5 mi East 28.8 mph - N/A   Overcast
10:36 AM 12.2 °F -9.6 °F 10.4 °F 92% 30.04 in 1.0 mi East 31.1 mph 34.5 mph N/A   Overcast
10:56 AM 12.2 °F -9.6 °F 10.4 °F 92% 30.04 in 1.0 mi East 31.1 mph 34.5 mph N/A   Overcast
11:16 AM 12.2 °F -9.9 °F 10.4 °F 92% 30.03 in 0.2 mi East 32.2 mph 39.1 mph N/A   Overcast
11:36 AM 12.2 °F -8.2 °F 10.4 °F 92% 30.04 in 1.0 mi East 26.5 mph 29.9 mph N/A   Overcast
11:56 AM 12.2 °F -8.9 °F 8.6 °F 85% 30.04 in 1.2 mi East 28.8 mph 32.2 mph N/A   Overcast
12:16 PM 12.2 °F -7.5 °F 10.4 °F 92% 30.04 in 3.0 mi East 24.2 mph - N/A   Overcast
12:36 PM 12.2 °F -7.5 °F 8.6 °F 85% 30.04 in 4.0 mi East 24.2 mph - N/A   Overcast
12:56 PM 14.0 °F -3.9 °F 10.4 °F 86% 30.04 in 8.0 mi East 20.7 mph - N/A   Overcast
1:16 PM 14.0 °F -2.5 °F 10.4 °F 86% 30.05 in 9.0 mi East 17.3 mph - N/A   Overcast
1:36 PM 12.2 °F -7.1 °F 8.6 °F 85% 30.04 in 2.5 mi East 23.0 mph - N/A   Overcast
1:56 PM 14.0 °F -4.7 °F 8.6 °F 79% 30.04 in 2.0 mi ENE 23.0 mph - N/A   Overcast
2:16 PM 12.2 °F -6.3 °F 10.4 °F 92% 30.04 in 2.5 mi East 20.7 mph - N/A   Overcast
2:36 PM 14.0 °F -3.4 °F 10.4 °F 86% 30.05 in 7.0 mi ENE 19.6 mph - N/A   Overcast
2:56 PM 14.0 °F -3.4 °F 10.4 °F 86% 30.05 in 10.0 mi East 19.6 mph - N/A   Overcast
3:16 PM 14.0 °F -3.0 °F 10.4 °F 86% 30.05 in 9.0 mi ENE 18.4 mph - N/A   Overcast
3:36 PM 14.0 °F -5.1 °F 10.4 °F 86% 30.04 in 5.0 mi East 24.2 mph - N/A   Overcast
3:56 PM 14.0 °F -4.3 °F 12.2 °F 93% 30.04 in 6.0 mi East 21.9 mph - N/A   Overcast
4:16 PM 14.0 °F -3.4 °F 10.4 °F 86% 30.05 in 6.0 mi East 19.6 mph - N/A   Overcast
4:36 PM 14.0 °F -3.4 °F 10.4 °F 86% 30.05 in 2.5 mi East 19.6 mph - N/A   Overcast
4:56 PM 14.0 °F -3.9 °F 10.4 °F 86% 30.06 in 5.0 mi East 20.7 mph - N/A   Overcast
5:16 PM 12.2 °F -5.8 °F 8.6 °F 85% 30.06 in 3.0 mi East 19.6 mph - N/A   Overcast
5:36 PM 12.2 °F -6.3 °F 8.6 °F 85% 30.06 in 10.0 mi East 20.7 mph - N/A   Overcast
5:56 PM 12.2 °F -6.3 °F 8.6 °F 85% 30.07 in 7.0 mi East 20.7 mph - N/A   Overcast
6:16 PM 12.2 °F -5.8 °F 8.6 °F 85% 30.07 in 10.0 mi East 19.6 mph - N/A   Overcast
6:36 PM 12.2 °F -5.8 °F 8.6 °F 85% 30.08 in 10.0 mi East 19.6 mph - N/A   Overcast
6:56 PM 12.2 °F -6.7 °F 8.6 °F 85% 30.07 in 10.0 mi East 21.9 mph - N/A   Overcast
7:16 PM 12.2 °F -5.3 °F 8.6 °F 85% 30.08 in 10.0 mi East 18.4 mph - N/A   Overcast
7:36 PM 12.2 °F -4.8 °F 8.6 °F 85% 30.08 in 10.0 mi East 17.3 mph - N/A   Overcast
7:56 PM 12.2 °F -5.3 °F 6.8 °F 79% 30.08 in 10.0 mi East 18.4 mph - N/A   Overcast
8:16 PM 12.2 °F -4.3 °F 8.6 °F 85% 30.09 in 10.0 mi East 16.1 mph - N/A   Overcast
8:36 PM 12.2 °F -5.3 °F 8.6 °F 85% 30.10 in 10.0 mi East 18.4 mph - N/A   Overcast
8:56 PM 12.2 °F -6.7 °F 8.6 °F 85% 30.10 in 10.0 mi East 21.9 mph - N/A   Overcast
9:16 PM 12.2 °F -7.5 °F 6.8 °F 79% 30.10 in 10.0 mi East 24.2 mph - N/A   Overcast
9:36 PM 12.2 °F -6.7 °F 6.8 °F 79% 30.09 in 10.0 mi East 21.9 mph - N/A   Mostly Cloudy
9:56 PM 12.2 °F -7.1 °F 5.0 °F 73% 30.10 in 10.0 mi East 23.0 mph - N/A   Partly Cloudy
10:16 PM 10.4 °F -9.5 °F 5.0 °F 79% 30.11 in 10.0 mi East 23.0 mph - N/A   Partly Cloudy
10:36 PM 10.4 °F -8.6 °F 3.2 °F 73% 30.12 in 10.0 mi East 20.7 mph - N/A   Scattered Clouds
10:56 PM 10.4 °F -7.7 °F 5.0 °F 79% 30.13 in 10.0 mi ENE 18.4 mph - N/A   Mostly Cloudy
11:16 PM 8.6 °F -11.0 °F 3.2 °F 79% 30.13 in 10.0 mi East 20.7 mph - N/A   Partly Cloudy
11:36 PM 8.6 °F -10.5 °F 3.2 °F 79% 30.14 in 10.0 mi East 19.6 mph - N/A   Clear
11:56 PM 10.4 °F -8.2 °F 3.2 °F 73% 30.14 in 10.0 mi East 19.6 mph - N/A   Clear